Time;durP1;ratioP1;P1;durP2;ratioP2;P2;SDS_P1;SDS_P2;PMS_P1;PMS_P2;Temp;Humidity;BMP_temperature;BMP_pressure;BME280_temperature;BME280_humidity;BME280_pressure;Samples;Min_cycle;Max_cycle;Signal;HPM_P1;HPM_P2
2021/07/02 00:01:16;;;;;;;2.72;1.05;;;19.60;82.00;;;;;;5117630;28;20024;-71
2021/07/02 00:03:41;;;;;;;2.65;0.90;;;19.40;82.80;;;;;;5117647;28;20398;-71
2021/07/02 00:06:07;;;;;;;5.50;1.00;;;19.30;82.20;;;;;;5117296;28;20032;-71
2021/07/02 00:08:34;;;;;;;5.72;1.23;;;19.20;81.80;;;;;;5117196;28;20019;-71
2021/07/02 00:11:00;;;;;;;2.88;1.25;;;19.10;82.80;;;;;;5117528;28;20036;-71
2021/07/02 00:13:26;;;;;;;3.03;0.98;;;19.10;83.60;;;;;;5117090;28;20454;-71
2021/07/02 00:15:52;;;;;;;2.85;1.00;;;19.20;83.60;;;;;;5117129;28;20024;-71
2021/07/02 00:18:17;;;;;;;1.65;0.93;;;19.30;82.80;;;;;;5117458;28;20044;-71
2021/07/02 00:20:43;;;;;;;4.72;1.13;;;19.30;81.40;;;;;;5117131;28;20049;-71
2021/07/02 00:23:09;;;;;;;5.45;1.55;;;19.40;80.50;;;;;;5117390;28;20038;-71
2021/07/02 00:25:37;;;;;;;1.60;0.90;;;19.40;81.10;;;;;;5117367;28;20321;-71
2021/07/02 00:28:05;;;;;;;4.90;0.85;;;19.40;80.80;;;;;;5116971;28;20080;-71
2021/07/02 00:30:31;;;;;;;4.47;0.60;;;19.40;79.80;;;;;;5117342;28;20121;-71
2021/07/02 00:32:57;;;;;;;4.47;0.80;;;19.50;78.20;;;;;;5120222;28;20019;-71
2021/07/02 00:35:22;;;;;;;7.78;0.90;;;19.60;77.70;;;;;;5121484;28;20315;-71
2021/07/02 00:37:48;;;;;;;1.20;0.50;;;19.60;78.80;;;;;;5121510;28;20023;-71
2021/07/02 00:40:14;;;;;;;1.10;0.65;;;19.50;78.40;;;;;;5121446;28;20062;-71
2021/07/02 00:42:39;;;;;;;2.40;0.60;;;19.50;77.20;;;;;;5121361;28;20426;-71
2021/07/02 00:45:06;;;;;;;1.50;0.50;;;19.50;77.00;;;;;;5121374;28;20431;-71
2021/07/02 00:47:31;;;;;;;2.92;0.40;;;19.50;77.00;;;;;;5120983;28;20135;-71
2021/07/02 00:49:57;;;;;;;0.57;0.40;;;19.50;76.40;;;;;;5121293;28;20019;-71
2021/07/02 00:52:23;;;;;;;2.70;0.50;;;19.50;76.00;;;;;;5121237;28;20349;-71
2021/07/02 00:54:52;;;;;;;1.48;0.55;;;19.60;75.20;;;;;;5120957;28;20036;-71
2021/07/02 00:57:18;;;;;;;2.10;0.40;;;19.70;76.20;;;;;;5121127;28;20027;-71
2021/07/02 00:59:44;;;;;;;1.13;0.50;;;19.80;76.00;;;;;;5121122;28;20308;-71
2021/07/02 01:02:10;;;;;;;0.80;0.40;;;19.80;75.00;;;;;;5120717;28;20031;-71
2021/07/02 01:04:36;;;;;;;1.05;0.50;;;19.80;75.20;;;;;;5102621;28;20032;-71
2021/07/02 01:07:03;;;;;;;1.45;0.30;;;19.70;75.20;;;;;;5120868;28;20026;-71
2021/07/02 01:09:29;;;;;;;0.98;0.40;;;19.70;74.20;;;;;;5120857;28;20055;-71
2021/07/02 01:11:57;;;;;;;4.50;0.30;;;19.70;73.90;;;;;;5120879;28;20361;-71
2021/07/02 01:14:22;;;;;;;0.85;0.40;;;19.70;74.20;;;;;;5120983;28;20419;-71
2021/07/02 01:16:48;;;;;;;2.95;0.40;;;19.70;73.50;;;;;;5120717;28;20039;-71
2021/07/02 01:19:14;;;;;;;2.05;0.40;;;19.80;73.10;;;;;;5120705;28;20019;-71
2021/07/02 01:21:40;;;;;;;0.30;0.30;;;19.80;74.20;;;;;;5120670;28;20019;-71
2021/07/02 01:24:06;;;;;;;3.58;0.30;;;19.80;72.90;;;;;;5120329;28;20358;-71
2021/07/02 01:26:32;;;;;;;2.95;0.40;;;19.90;72.10;;;;;;5120445;28;20027;-71
2021/07/02 01:28:59;;;;;;;1.20;0.28;;;19.90;72.40;;;;;;5120216;28;20034;-71
2021/07/02 01:31:26;;;;;;;0.50;0.30;;;19.90;71.80;;;;;;5120473;28;20366;-71
2021/07/02 01:33:52;;;;;;;2.63;0.50;;;20.00;73.70;;;;;;5120118;28;20047;-71
2021/07/02 01:36:21;;;;;;;0.80;0.43;;;19.90;73.60;;;;;;5120390;28;20095;-71
2021/07/02 01:38:47;;;;;;;6.43;2.17;;;19.70;75.00;;;;;;5120058;28;20063;-71
2021/07/02 01:41:13;;;;;;;0.75;0.35;;;19.70;73.20;;;;;;5119963;28;20024;-71
2021/07/02 01:43:39;;;;;;;0.30;0.30;;;19.60;74.00;;;;;;5120134;28;20085;-71
2021/07/02 01:46:05;;;;;;;0.63;0.40;;;19.60;74.60;;;;;;5120206;28;20020;-71
2021/07/02 01:48:30;;;;;;;0.55;0.30;;;19.60;75.50;;;;;;5120060;28;20031;-71
2021/07/02 01:50:57;;;;;;;2.95;1.55;;;19.60;74.90;;;;;;5120152;28;20022;-71
2021/07/02 01:53:22;;;;;;;0.68;0.30;;;19.60;74.00;;;;;;5120064;28;20024;-71
2021/07/02 01:55:49;;;;;;;0.30;0.30;;;19.60;74.90;;;;;;5119496;28;20453;-71
2021/07/02 01:58:14;;;;;;;0.60;0.30;;;19.50;75.10;;;;;;5119904;28;20080;-71
2021/07/02 02:00:40;;;;;;;2.05;0.20;;;19.40;75.40;;;;;;5119647;28;20107;-71
2021/07/02 02:03:06;;;;;;;0.32;0.20;;;19.30;76.00;;;;;;5119886;28;20146;-71
2021/07/02 02:05:32;;;;;;;2.83;0.40;;;19.20;76.80;;;;;;5119797;28;20114;-71
2021/07/02 02:07:58;;;;;;;0.70;0.30;;;19.20;77.80;;;;;;5119713;28;20030;-71
2021/07/02 02:10:23;;;;;;;2.67;0.30;;;19.30;77.40;;;;;;5119710;28;20016;-71
2021/07/02 02:12:49;;;;;;;0.77;0.35;;;19.30;76.10;;;;;;5119444;28;20035;-71
2021/07/02 02:15:15;;;;;;;0.47;0.32;;;19.30;76.30;;;;;;5119663;28;20019;-71
2021/07/02 02:17:40;;;;;;;0.55;0.20;;;19.40;76.60;;;;;;5119261;28;20023;-71
2021/07/02 02:20:08;;;;;;;0.50;0.22;;;19.40;77.90;;;;;;5119547;28;20099;-71
2021/07/02 02:22:33;;;;;;;1.15;0.30;;;19.40;76.50;;;;;;5119195;28;20024;-71
2021/07/02 02:24:59;;;;;;;0.82;0.20;;;19.40;76.20;;;;;;5119447;28;20023;-71
2021/07/02 02:27:26;;;;;;;0.20;0.20;;;19.30;75.70;;;;;;5119050;28;20304;-71
2021/07/02 02:29:51;;;;;;;0.40;0.28;;;19.30;76.50;;;;;;5119069;28;20516;-71
2021/07/02 02:32:17;;;;;;;1.13;0.40;;;19.40;76.70;;;;;;5119324;28;20032;-71
2021/07/02 02:34:43;;;;;;;0.50;0.20;;;19.50;76.50;;;;;;5119325;28;20311;-71
2021/07/02 02:37:09;;;;;;;0.65;0.40;;;19.50;76.00;;;;;;5118869;28;20032;-71
2021/07/02 02:39:35;;;;;;;0.52;0.30;;;19.50;75.90;;;;;;5119179;28;20020;-71
2021/07/02 02:42:00;;;;;;;0.28;0.20;;;19.50;76.00;;;;;;5119144;28;20035;-71
2021/07/02 02:44:27;;;;;;;1.45;0.50;;;19.50;75.50;;;;;;5119298;28;20358;-72
2021/07/02 02:46:53;;;;;;;0.60;0.40;;;19.50;75.50;;;;;;5118955;28;20027;-71
2021/07/02 02:49:18;;;;;;;0.65;0.30;;;19.50;75.90;;;;;;5118975;28;20329;-71
2021/07/02 02:51:44;;;;;;;0.32;0.30;;;19.50;76.60;;;;;;5118930;28;20023;-71
2021/07/02 02:54:10;;;;;;;1.08;0.40;;;19.40;76.10;;;;;;5118173;28;20102;-71
2021/07/02 02:56:35;;;;;;;0.50;0.20;;;19.40;77.00;;;;;;5118175;28;20043;-71
2021/07/02 02:59:01;;;;;;;1.33;0.45;;;19.40;75.60;;;;;;5118799;28;20043;-71
2021/07/02 03:01:27;;;;;;;0.93;0.30;;;19.40;74.90;;;;;;5118735;28;20023;-71
2021/07/02 03:03:53;;;;;;;0.35;0.30;;;19.40;75.30;;;;;;5118685;28;20031;-71
2021/07/02 03:06:18;;;;;;;3.08;0.30;;;19.40;74.40;;;;;;5118328;28;20028;-71
2021/07/02 03:08:44;;;;;;;0.60;0.40;;;19.40;75.20;;;;;;5118243;28;20023;-71
2021/07/02 03:11:10;;;;;;;1.27;0.93;;;19.40;74.90;;;;;;5118538;28;20031;-71
2021/07/02 03:13:36;;;;;;;1.55;0.30;;;19.40;75.20;;;;;;5118580;28;20471;-71
2021/07/02 03:16:02;;;;;;;0.20;0.20;;;19.40;76.10;;;;;;5118447;28;20024;-71
2021/07/02 03:18:27;;;;;;;0.85;0.35;;;19.40;75.90;;;;;;5118088;28;20347;-71
2021/07/02 03:20:53;;;;;;;0.43;0.25;;;19.30;76.30;;;;;;5118066;28;20046;-71
2021/07/02 03:23:19;;;;;;;1.88;0.68;;;19.30;72.90;;;;;;5118300;28;20027;-71
2021/07/02 03:25:44;;;;;;;0.40;0.30;;;19.30;73.70;;;;;;5118254;28;20452;-71
2021/07/02 03:28:10;;;;;;;0.88;0.50;;;19.20;74.20;;;;;;5117833;28;20028;-71
2021/07/02 03:30:35;;;;;;;1.70;0.40;;;19.20;74.10;;;;;;5117824;28;20065;-71
2021/07/02 03:33:01;;;;;;;2.17;0.30;;;19.20;74.10;;;;;;5117858;28;20016;-71
2021/07/02 03:35:27;;;;;;;1.58;0.30;;;19.30;74.40;;;;;;5117766;28;20027;-71
2021/07/02 03:37:52;;;;;;;0.60;0.43;;;19.30;72.90;;;;;;5118036;28;20054;-71
2021/07/02 03:40:18;;;;;;;0.60;0.30;;;19.40;74.80;;;;;;5118038;28;20293;-71
2021/07/02 03:42:44;;;;;;;0.55;0.50;;;19.50;75.60;;;;;;5117673;28;20031;-72
2021/07/02 03:45:10;;;;;;;0.43;0.30;;;19.60;75.80;;;;;;5117611;28;20028;-71
2021/07/02 03:47:36;;;;;;;0.20;0.20;;;19.60;77.00;;;;;;5117478;28;20027;-71
2021/07/02 03:50:02;;;;;;;0.70;0.30;;;19.50;75.00;;;;;;5117550;28;20024;-71
2021/07/02 03:52:29;;;;;;;0.50;0.30;;;19.30;74.70;;;;;;5117820;28;20312;-71
2021/07/02 03:54:54;;;;;;;1.75;0.30;;;19.20;75.90;;;;;;5117589;28;20048;-71
2021/07/02 03:57:20;;;;;;;1.73;0.40;;;19.10;76.20;;;;;;5117744;28;20541;-71
2021/07/02 03:59:49;;;;;;;1.10;0.20;;;19.10;76.60;;;;;;5117389;28;20031;-71
2021/07/02 04:02:15;;;;;;;1.17;0.22;;;19.20;76.40;;;;;;5117361;28;20435;-71
2021/07/02 04:04:41;;;;;;;0.43;0.32;;;19.00;76.40;;;;;;5117651;28;20055;-71
2021/07/02 04:07:09;;;;;;;0.80;0.30;;;19.00;76.50;;;;;;5116546;28;20034;-71
2021/07/02 04:09:36;;;;;;;0.40;0.30;;;19.10;76.80;;;;;;5117568;28;20312;-71
2021/07/02 04:12:02;;;;;;;0.68;0.30;;;19.10;74.40;;;;;;5117286;28;20041;-71
2021/07/02 04:14:29;;;;;;;1.10;0.30;;;19.20;74.80;;;;;;5117167;28;20024;-71
2021/07/02 04:16:55;;;;;;;0.40;0.40;;;19.20;75.90;;;;;;5117444;28;20031;-71
2021/07/02 04:19:21;;;;;;;0.88;0.20;;;19.20;77.80;;;;;;5117115;28;20055;-71
2021/07/02 04:21:48;;;;;;;0.60;0.35;;;19.30;77.90;;;;;;5117167;28;20069;-71
2021/07/02 04:24:15;;;;;;;1.13;0.40;;;19.40;78.10;;;;;;5117154;28;20027;-71
2021/07/02 04:26:40;;;;;;;1.33;0.50;;;19.40;76.50;;;;;;5117245;28;20365;-71
2021/07/02 04:29:06;;;;;;;1.33;0.30;;;19.30;78.00;;;;;;5117382;28;20016;-71
2021/07/02 04:31:32;;;;;;;1.05;0.30;;;19.30;79.00;;;;;;5117366;28;20111;-71
2021/07/02 04:33:57;;;;;;;2.38;0.30;;;19.40;79.20;;;;;;5117306;28;20028;-71
2021/07/02 04:36:23;;;;;;;1.90;0.30;;;19.40;77.80;;;;;;5117330;28;20048;-71
2021/07/02 04:38:49;;;;;;;1.67;0.45;;;19.50;76.80;;;;;;5117318;28;20530;-71
2021/07/02 04:41:14;;;;;;;0.85;0.40;;;19.60;75.90;;;;;;5117296;28;20463;-71
2021/07/02 04:43:40;;;;;;;0.88;0.38;;;19.60;77.20;;;;;;5117320;28;20032;-71
2021/07/02 04:46:06;;;;;;;0.30;0.30;;;19.70;75.10;;;;;;5117183;28;20433;-71
2021/07/02 04:48:31;;;;;;;3.13;0.47;;;19.80;74.80;;;;;;5116792;28;20091;-71
2021/07/02 04:50:57;;;;;;;1.00;0.38;;;20.00;74.70;;;;;;5116861;28;20036;-71
2021/07/02 04:53:23;;;;;;;5.22;0.63;;;20.10;75.60;;;;;;5116822;28;20015;-71
2021/07/02 04:55:48;;;;;;;2.47;0.40;;;20.10;76.90;;;;;;5116649;28;20126;-71
2021/07/02 04:58:16;;;;;;;0.57;0.30;;;20.10;77.80;;;;;;5116814;28;20063;-71
2021/07/02 05:00:42;;;;;;;2.45;0.30;;;20.20;78.30;;;;;;5116798;28;20077;-71
2021/07/02 05:03:08;;;;;;;0.50;0.30;;;20.10;79.40;;;;;;5117082;28;20020;-71
2021/07/02 05:05:35;;;;;;;1.17;0.40;;;20.00;80.10;;;;;;5117024;28;20042;-71
2021/07/02 05:08:00;;;;;;;1.10;0.45;;;19.90;80.50;;;;;;5116926;28;20034;-71
2021/07/02 05:10:26;;;;;;;0.50;0.40;;;19.80;80.90;;;;;;5117033;28;20098;-71
2021/07/02 05:12:52;;;;;;;3.17;0.50;;;19.70;80.60;;;;;;5116684;28;20447;-71
2021/07/02 05:15:18;;;;;;;3.00;0.60;;;19.60;80.80;;;;;;5116937;28;20107;-71
2021/07/02 05:17:43;;;;;;;1.08;0.40;;;19.50;80.40;;;;;;5117255;28;20024;-71
2021/07/02 05:20:10;;;;;;;0.70;0.30;;;19.30;81.20;;;;;;5120446;28;20043;-69
2021/07/02 05:22:36;;;;;;;2.00;0.50;;;19.30;79.60;;;;;;5120685;28;20051;-71
2021/07/02 05:25:02;;;;;;;1.00;0.45;;;19.30;77.60;;;;;;5120614;28;20031;-71
2021/07/02 05:27:28;;;;;;;0.90;0.40;;;19.40;78.00;;;;;;5120217;28;20031;-71
2021/07/02 05:29:54;;;;;;;1.27;0.40;;;19.50;75.40;;;;;;5120529;28;20027;-71
2021/07/02 05:32:19;;;;;;;1.58;0.50;;;19.60;74.40;;;;;;5120187;28;20027;-71
2021/07/02 05:34:45;;;;;;;0.95;0.50;;;19.80;72.00;;;;;;5120526;28;20023;-71
2021/07/02 05:37:11;;;;;;;1.23;0.40;;;19.90;74.40;;;;;;5120323;28;20102;-71
2021/07/02 05:39:36;;;;;;;1.30;0.50;;;20.00;73.90;;;;;;5120357;28;20034;-71
2021/07/02 05:42:03;;;;;;;1.45;0.40;;;20.20;74.70;;;;;;5120325;28;20024;-71
2021/07/02 05:44:29;;;;;;;1.00;0.45;;;20.40;76.30;;;;;;5120512;28;20036;-71
2021/07/02 05:46:55;;;;;;;2.10;0.50;;;20.60;74.60;;;;;;5119788;28;20093;-72
2021/07/02 05:49:20;;;;;;;1.00;0.32;;;20.70;70.50;;;;;;5120159;28;20051;-72
2021/07/02 05:51:47;;;;;;;0.40;0.32;;;20.90;71.00;;;;;;5120121;28;20321;-70
2021/07/02 05:54:13;;;;;;;0.70;0.38;;;21.00;73.10;;;;;;5119836;28;20327;-70
2021/07/02 05:56:39;;;;;;;3.05;0.50;;;21.20;69.90;;;;;;5119542;28;20051;-70
2021/07/02 05:59:04;;;;;;;0.63;0.40;;;21.30;73.30;;;;;;5119985;28;20027;-70
2021/07/02 06:01:30;;;;;;;0.68;0.43;;;21.40;72.50;;;;;;5119645;28;20016;-70
2021/07/02 06:03:56;;;;;;;1.60;0.30;;;21.40;70.90;;;;;;5119582;28;20044;-70
2021/07/02 06:06:22;;;;;;;0.80;0.40;;;21.50;69.90;;;;;;5119830;28;20027;-70
2021/07/02 06:08:50;;;;;;;0.90;0.45;;;21.70;71.20;;;;;;5119736;28;20092;-70
2021/07/02 06:11:16;;;;;;;1.15;0.40;;;22.00;70.80;;;;;;5119433;28;20019;-70
2021/07/02 06:13:43;;;;;;;0.40;0.30;;;22.20;69.40;;;;;;5119771;28;20028;-70
2021/07/02 06:16:09;;;;;;;2.55;0.30;;;22.40;68.50;;;;;;5119329;28;20044;-70
2021/07/02 06:18:35;;;;;;;1.48;0.40;;;22.80;67.60;;;;;;5119293;28;20023;-69
2021/07/02 06:21:01;;;;;;;0.52;0.25;;;23.30;66.00;;;;;;5119614;28;20320;-70
2021/07/02 06:23:33;;;;;;;0.65;0.28;;;24.00;61.70;;;;;;5119561;28;20024;-70
2021/07/02 06:26:00;;;;;;;0.45;0.30;;;24.60;61.80;;;;;;5119171;28;20420;-70
2021/07/02 06:28:30;;;;;;;0.47;0.28;;;25.30;59.80;;;;;;5119374;28;20110;-70
2021/07/02 06:30:56;;;;;;;1.67;0.30;;;25.70;59.20;;;;;;5118385;28;20023;-70
2021/07/02 06:33:23;;;;;;;0.60;0.30;;;25.90;60.30;;;;;;5119058;28;20050;-70
2021/07/02 06:35:49;;;;;;;0.65;0.28;;;26.30;59.20;;;;;;5118984;28;20028;-70
2021/07/02 06:38:19;;;;;;;0.68;0.30;;;26.80;58.70;;;;;;5119256;28;20365;-70
2021/07/02 06:40:46;;;;;;;0.93;0.30;;;27.30;57.80;;;;;;5119189;28;20051;-70
2021/07/02 06:43:11;;;;;;;2.28;0.20;;;27.30;57.90;;;;;;5100849;28;20039;-70
2021/07/02 06:45:37;;;;;;;0.57;0.30;;;27.70;60.30;;;;;;5118796;28;20027;-70
2021/07/02 06:48:05;;;;;;;0.47;0.30;;;28.30;59.30;;;;;;5118974;28;20072;-70
2021/07/02 06:50:33;;;;;;;1.95;0.30;;;28.80;53.30;;;;;;5118961;28;20023;-70
2021/07/02 06:53:00;;;;;;;2.45;0.40;;;29.10;52.10;;;;;;5118574;28;20038;-69
2021/07/02 06:55:26;;;;;;;1.05;0.30;;;29.60;53.80;;;;;;5118583;28;20047;-70
2021/07/02 06:57:53;;;;;;;2.00;0.40;;;29.80;52.50;;;;;;5118846;28;20076;-70
2021/07/02 07:00:19;;;;;;;1.75;0.35;;;29.60;54.30;;;;;;5118518;28;20028;-70
2021/07/02 07:02:45;;;;;;;2.58;0.30;;;29.50;51.20;;;;;;5118717;28;20129;-70
2021/07/02 07:05:12;;;;;;;0.38;0.20;;;29.50;54.00;;;;;;5118377;28;20027;-70
2021/07/02 07:07:37;;;;;;;1.35;0.40;;;29.00;53.00;;;;;;5118583;28;20354;-70
2021/07/02 07:10:04;;;;;;;0.88;0.30;;;28.10;53.40;;;;;;5118619;28;20020;-70
2021/07/02 07:12:30;;;;;;;2.25;0.57;;;27.60;55.10;;;;;;5118248;28;20085;-70
2021/07/02 07:14:57;;;;;;;2.15;0.50;;;28.00;56.70;;;;;;5118533;28;20016;-70
2021/07/02 07:17:23;;;;;;;1.42;0.43;;;28.20;53.80;;;;;;5118189;28;20036;-70
2021/07/02 07:19:49;;;;;;;2.03;0.50;;;28.00;58.10;;;;;;5118079;28;20031;-70
2021/07/02 07:22:14;;;;;;;1.45;0.40;;;28.10;52.80;;;;;;5118392;28;20373;-70
2021/07/02 07:24:40;;;;;;;0.70;0.35;;;28.00;54.80;;;;;;5118353;28;20400;-69
2021/07/02 07:27:06;;;;;;;1.75;0.40;;;27.30;58.50;;;;;;5118182;28;20028;-70
2021/07/02 07:29:32;;;;;;;2.78;0.50;;;26.90;59.40;;;;;;5118238;28;20024;-70
2021/07/02 07:31:58;;;;;;;2.25;0.50;;;26.50;60.10;;;;;;5118155;28;20024;-70
2021/07/02 07:34:32;;;;;;;2.97;0.50;;;26.50;58.90;;;;;;5118154;28;20026;-70
2021/07/02 07:36:59;;;;;;;0.80;0.40;;;27.30;57.60;;;;;;5118141;28;20032;-70
2021/07/02 07:39:25;;;;;;;0.80;0.43;;;28.00;55.90;;;;;;5117726;28;20024;-70
2021/07/02 07:41:51;;;;;;;2.58;0.40;;;28.70;54.00;;;;;;5117475;28;20038;-70
2021/07/02 07:44:16;;;;;;;5.05;0.50;;;29.40;52.50;;;;;;5118138;28;20038;-70
2021/07/02 07:46:42;;;;;;;1.40;0.47;;;29.30;50.30;;;;;;5117465;28;20023;-70
2021/07/02 07:49:08;;;;;;;3.13;0.30;;;29.60;52.50;;;;;;5117891;28;20103;-70
2021/07/02 07:51:37;;;;;;;1.23;0.40;;;29.80;51.80;;;;;;5117851;28;20019;-70
2021/07/02 07:54:03;;;;;;;0.70;0.30;;;29.90;51.80;;;;;;5117805;28;20327;-70
2021/07/02 07:56:30;;;;;;;5.47;0.60;;;30.00;49.40;;;;;;5117249;28;20123;-70
2021/07/02 07:58:56;;;;;;;1.38;0.30;;;30.20;51.10;;;;;;5117438;28;20053;-70
2021/07/02 08:01:22;;;;;;;1.30;0.40;;;30.30;48.20;;;;;;5117707;28;20097;-70
2021/07/02 08:03:48;;;;;;;0.68;0.30;;;30.30;50.60;;;;;;5117646;28;20100;-71
2021/07/02 08:06:14;;;;;;;1.30;0.32;;;30.20;52.10;;;;;;5117648;28;20412;-70
2021/07/02 08:08:40;;;;;;;2.50;0.40;;;30.40;51.60;;;;;;5117533;28;20027;-71
2021/07/02 08:11:05;;;;;;;0.82;0.30;;;30.60;49.90;;;;;;5117291;28;20051;-71
2021/07/02 08:13:31;;;;;;;1.13;0.50;;;30.90;50.40;;;;;;5117323;28;20055;-71
2021/07/02 08:15:57;;;;;;;0.95;0.43;;;30.90;49.60;;;;;;5117522;28;20016;-71
2021/07/02 08:18:23;;;;;;;1.50;0.35;;;30.30;50.70;;;;;;5117551;28;20461;-71
2021/07/02 08:20:49;;;;;;;0.90;0.40;;;30.40;53.20;;;;;;5117477;28;20035;-71
2021/07/02 08:23:15;;;;;;;1.30;0.50;;;30.60;49.40;;;;;;5117426;28;20153;-71
2021/07/02 08:25:41;;;;;;;2.55;0.55;;;30.80;49.50;;;;;;5117408;28;20032;-71
2021/07/02 08:30:52;;;;;;;1.17;0.30;;;31.40;48.40;;;;;;5117203;28;20393;-71
2021/07/02 08:33:19;;;;;;;2.58;0.30;;;31.40;50.90;;;;;;5117022;28;20098;-71
2021/07/02 08:35:48;;;;;;;1.58;0.40;;;31.70;50.30;;;;;;5116990;28;20430;-71
2021/07/02 08:38:15;;;;;;;2.08;0.88;;;31.50;52.60;;;;;;5117314;28;20396;-71
2021/07/02 08:40:42;;;;;;;2.55;0.50;;;31.20;49.70;;;;;;5117298;28;20406;-70
2021/07/02 08:43:08;;;;;;;0.73;0.40;;;30.90;53.40;;;;;;5117279;28;20069;-71
2021/07/02 08:45:34;;;;;;;1.77;0.38;;;30.90;53.30;;;;;;5116887;28;20020;-71
2021/07/02 08:48:09;;;;;;;4.07;0.43;;;31.10;48.80;;;;;;5117122;28;20032;-71
2021/07/02 08:50:37;;;;;;;1.63;0.45;;;31.60;50.70;;;;;;5116575;28;20032;-71
2021/07/02 08:53:05;;;;;;;1.02;0.47;;;31.80;49.30;;;;;;5100332;28;20077;-71
2021/07/02 08:55:31;;;;;;;0.32;0.20;;;31.70;51.90;;;;;;5120911;28;20046;-71
2021/07/02 08:57:57;;;;;;;1.27;0.35;;;31.80;47.60;;;;;;5120884;28;20028;-71
2021/07/02 09:00:22;;;;;;;3.92;0.43;;;31.60;51.60;;;;;;5121173;28;20027;-71
2021/07/02 09:02:48;;;;;;;2.72;0.52;;;31.70;46.90;;;;;;5120766;28;20059;-71
2021/07/02 09:05:35;;;;;;;0.77;0.45;;;31.90;47.30;;;;;;5121043;28;20035;-71
2021/07/02 09:08:02;;;;;;;3.60;0.50;;;31.60;51.20;;;;;;5120595;28;20437;-71
2021/07/02 09:10:35;;;;;;;3.95;0.70;;;31.60;50.90;;;;;;5120957;28;20041;-71
2021/07/02 09:13:01;;;;;;;2.13;0.70;;;31.60;48.40;;;;;;5120682;28;20384;-71
2021/07/02 09:15:28;;;;;;;0.73;0.40;;;31.50;51.90;;;;;;5120875;28;20289;-71
2021/07/02 09:17:57;;;;;;;1.52;0.70;;;31.50;50.40;;;;;;5120809;28;20103;-71
2021/07/02 09:20:36;;;;;;;3.35;0.80;;;31.40;49.70;;;;;;5120777;28;20023;-71
2021/07/02 09:23:10;;;;;;;2.25;0.55;;;31.40;48.90;;;;;;5120719;28;20031;-70
2021/07/02 09:25:48;;;;;;;2.38;0.60;;;31.60;52.40;;;;;;5120664;28;20024;-70
2021/07/02 09:28:16;;;;;;;1.40;0.70;;;31.70;48.30;;;;;;5120580;28;20027;-70
2021/07/02 09:30:54;;;;;;;1.95;0.57;;;31.70;50.70;;;;;;5120483;28;20047;-70
2021/07/02 09:33:22;;;;;;;0.95;0.52;;;32.00;50.10;;;;;;5120547;28;20077;-70
2021/07/02 09:35:54;;;;;;;2.90;0.52;;;32.20;46.80;;;;;;5120178;28;20460;-70
2021/07/02 09:38:37;;;;;;;1.13;0.50;;;32.30;49.10;;;;;;5120400;28;20039;-70
2021/07/02 09:41:03;;;;;;;3.53;0.73;;;32.60;51.20;;;;;;5120047;28;20027;-70
2021/07/02 09:43:30;;;;;;;1.58;0.50;;;32.70;50.50;;;;;;5120109;28;20067;-71
2021/07/02 09:45:58;;;;;;;1.55;0.40;;;32.60;50.40;;;;;;5120265;28;20362;-70
2021/07/02 09:48:29;;;;;;;1.05;0.40;;;32.50;51.60;;;;;;5120173;28;20032;-70
2021/07/02 09:51:00;;;;;;;1.98;0.85;;;32.70;51.50;;;;;;5120209;28;20028;-70
2021/07/02 09:53:30;;;;;;;1.17;0.35;;;32.70;48.00;;;;;;5119818;28;20047;-70
2021/07/02 09:55:58;;;;;;;0.90;0.30;;;32.60;46.80;;;;;;5119562;28;20047;-71
2021/07/02 09:58:36;;;;;;;0.98;0.30;;;32.40;44.30;;;;;;5119727;28;20432;-72
2021/07/02 10:01:03;;;;;;;1.08;0.40;;;31.90;46.20;;;;;;5120028;28;20035;-71
2021/07/02 10:03:37;;;;;;;1.83;0.50;;;32.00;51.80;;;;;;5119888;28;20024;-71
2021/07/02 10:06:05;;;;;;;0.95;0.40;;;32.20;50.20;;;;;;5119583;28;20418;-70
2021/07/02 10:08:33;;;;;;;0.95;0.60;;;32.40;50.20;;;;;;5119796;28;20410;-70
2021/07/02 10:11:00;;;;;;;2.30;0.60;;;32.30;46.70;;;;;;5119496;28;20023;-70
2021/07/02 10:13:28;;;;;;;4.53;0.40;;;32.50;49.00;;;;;;5119812;28;20350;-71
2021/07/02 10:15:55;;;;;;;3.22;0.50;;;32.50;50.80;;;;;;5119656;28;20077;-70
2021/07/02 10:18:23;;;;;;;2.03;0.60;;;32.00;55.00;;;;;;5113807;28;20027;-70
2021/07/02 10:20:48;;;;;;;2.05;0.50;;;32.00;52.10;;;;;;5107842;28;20481;-71
2021/07/02 10:23:31;;;;;;;0.80;0.40;;;32.00;50.40;;;;;;5099146;28;20028;-71
2021/07/02 10:25:57;;;;;;;2.17;0.60;;;32.00;51.80;;;;;;5099045;28;20107;-71
2021/07/02 10:28:25;;;;;;;1.67;0.60;;;32.20;49.20;;;;;;5098692;28;20035;-71
2021/07/02 10:30:52;;;;;;;1.77;0.60;;;32.20;49.00;;;;;;5099026;28;20024;-70
2021/07/02 10:33:20;;;;;;;1.52;0.57;;;32.20;52.10;;;;;;5098665;28;20059;-71
2021/07/02 10:35:59;;;;;;;1.95;0.52;;;32.20;47.90;;;;;;5098864;28;20031;-71
2021/07/02 10:38:40;;;;;;;2.47;0.60;;;32.30;47.20;;;;;;5098725;28;20039;-71
2021/07/02 10:41:22;;;;;;;0.77;0.40;;;32.30;51.90;;;;;;5098839;28;20020;-71
2021/07/02 10:44:12;;;;;;;3.90;0.65;;;32.00;50.40;;;;;;5098864;28;20036;-70
2021/07/02 10:46:59;;;;;;;3.90;0.50;;;32.00;47.90;;;;;;5098676;28;20077;-71
2021/07/02 10:49:42;;;;;;;2.17;0.50;;;32.10;49.70;;;;;;5098664;28;20081;-71
2021/07/02 10:52:22;;;;;;;1.48;0.70;;;32.30;51.60;;;;;;5098588;28;20032;-71
2021/07/02 10:54:49;;;;;;;2.38;0.52;;;32.20;50.10;;;;;;5098331;28;20066;-70
2021/07/02 10:57:18;;;;;;;1.85;0.40;;;32.10;51.20;;;;;;5098502;28;20039;-71
2021/07/02 10:59:49;;;;;;;1.25;0.50;;;32.00;52.50;;;;;;5098425;28;20290;-70
2021/07/02 11:02:16;;;;;;;5.05;0.47;;;32.00;51.50;;;;;;5098393;28;20107;-71
2021/07/02 11:04:49;;;;;;;2.63;0.55;;;31.80;48.30;;;;;;5098067;28;20111;-70
2021/07/02 11:07:15;;;;;;;1.35;0.40;;;31.80;51.70;;;;;;5097871;28;20028;-70
2021/07/02 11:09:49;;;;;;;1.52;0.50;;;31.90;51.30;;;;;;5097953;28;20103;-71
2021/07/02 11:12:18;;;;;;;;;;;32.20;53.90;;;;;;5098351;28;20032;-70
2021/07/02 11:14:57;;;;;;;1.63;0.30;;;32.30;51.60;;;;;;5098188;28;19912;-71
2021/07/02 11:17:29;;;;;;;2.25;0.43;;;32.20;46.90;;;;;;5097445;28;20036;-70
2021/07/02 11:22:46;;;;;;;1.98;0.55;;;32.00;47.20;;;;;;5098369;28;20095;-70
2021/07/02 11:25:26;;;;;;;0.95;0.30;;;31.30;48.00;;;;;;5097929;28;20104;-70
2021/07/02 11:28:02;;;;;;;1.02;0.40;;;31.20;51.10;;;;;;5097544;28;20493;-71
2021/07/02 11:30:36;;;;;;;0.50;0.32;;;31.30;47.20;;;;;;5098505;28;20380;-71
2021/07/02 11:33:14;;;;;;;0.77;0.47;;;31.10;49.50;;;;;;5097510;28;20028;-71
2021/07/02 11:35:46;;;;;;;2.70;0.52;;;30.70;55.00;;;;;;5097414;28;20028;-71
2021/07/02 11:38:20;;;;;;;3.60;0.40;;;30.70;56.40;;;;;;5097455;28;20028;-71
2021/07/02 11:40:48;;;;;;;1.27;0.30;;;30.90;54.80;;;;;;5097710;28;20396;-71
2021/07/02 11:43:18;;;;;;;1.05;0.32;;;30.70;49.00;;;;;;5097395;28;20064;-71
2021/07/02 11:45:49;;;;;;;0.90;0.30;;;30.20;53.80;;;;;;5097582;28;20077;-71
2021/07/02 11:48:23;;;;;;;1.67;0.43;;;29.90;51.80;;;;;;5097509;28;20093;-71
2021/07/02 11:50:52;;;;;;;0.77;0.40;;;29.30;51.80;;;;;;5097521;28;20115;-71
2021/07/02 11:53:37;;;;;;;0.60;0.40;;;28.80;51.90;;;;;;5097141;28;20432;-71
2021/07/02 11:56:12;;;;;;;1.52;0.30;;;28.80;55.00;;;;;;5097072;28;20394;-71
2021/07/02 11:58:43;;;;;;;;;;;29.00;56.70;;;;;;5097586;28;20028;-71
2021/07/02 12:01:16;;;;;;;1.42;0.40;;;29.10;49.50;;;;;;5097399;28;19930;-71
2021/07/02 12:04:10;;;;;;;1.10;0.35;;;29.20;55.60;;;;;;5097399;28;20299;-71
2021/07/02 12:06:42;;;;;;;1.83;0.40;;;29.50;58.40;;;;;;5094036;28;20036;-71
2021/07/02 12:09:12;;;;;;;1.10;0.40;;;29.60;53.60;;;;;;5097239;28;20035;-71
2021/07/02 12:11:45;;;;;;;1.65;0.25;;;29.70;54.10;;;;;;5096854;28;20416;-71
2021/07/02 12:14:13;;;;;;;1.70;0.30;;;29.60;56.50;;;;;;5097391;28;20367;-71
2021/07/02 12:16:50;;;;;;;1.30;0.35;;;29.40;53.40;;;;;;5097110;28;20089;-71
2021/07/02 12:19:22;;;;;;;1.20;0.35;;;29.20;50.90;;;;;;5096856;28;20073;-71
2021/07/02 12:22:11;;;;;;;3.13;0.45;;;28.90;52.90;;;;;;5096837;28;20431;-71
2021/07/02 12:24:42;;;;;;;2.38;0.32;;;28.70;56.70;;;;;;5096771;28;20032;-70
2021/07/02 12:27:16;;;;;;;3.10;0.40;;;28.60;57.80;;;;;;5095985;28;20026;-71
2021/07/02 12:29:43;;;;;;;1.02;0.40;;;28.60;52.10;;;;;;5097057;28;20024;-70
2021/07/02 12:32:14;;;;;;;1.50;0.30;;;28.50;51.70;;;;;;5097018;28;20024;-70
2021/07/02 12:34:40;;;;;;;4.00;0.40;;;28.30;53.50;;;;;;5096997;28;20050;-70
2021/07/02 12:37:09;;;;;;;0.57;0.20;;;28.10;52.50;;;;;;5096886;28;20050;-70
2021/07/02 12:39:35;;;;;;;2.88;0.32;;;28.00;56.70;;;;;;5096652;28;20324;-70
2021/07/02 12:42:11;;;;;;;1.88;0.35;;;28.00;52.90;;;;;;5096919;28;20028;-70
2021/07/02 12:44:39;;;;;;;4.15;0.63;;;28.10;55.30;;;;;;5097108;28;20397;-70
2021/07/02 12:47:06;;;;;;;2.80;0.77;;;28.00;56.90;;;;;;5096752;28;20066;-70
2021/07/02 12:49:42;;;;;;;0.80;0.38;;;28.00;56.70;;;;;;5096980;28;20027;-71
2021/07/02 12:54:52;;;;;;;4.20;1.85;;;28.10;53.30;;;;;;5096742;28;20072;-70
2021/07/02 12:57:21;;;;;;;3.05;0.30;;;28.00;59.40;;;;;;5096451;28;20050;-70
2021/07/02 12:59:52;;;;;;;0.52;0.30;;;28.00;57.70;;;;;;5096442;28;20032;-70